Flood From: 18-02-2018 16:00 Until: 19-02-2018 16:00 warning for: Flood Level: Yellow info button

Although rather usual in this region, locally or potentially dangerous phenomena are expected. (such as local winds, summer thunderstorms, rising streams or high waves) Be aware and pay attention to the latest weather updates, especially if you carry out activities exposed to weather or close to a stream or shoreline. 


Meteo18 Weather Cam more information Meteo18 Weather Cam


Thunder radar more information blitzortung!


Rain radar more information rain snow radar


Visit our other weather sites:

Template documentation
and downloads

And another site



Weather Underground History page Text

Daily Summary for January 26, 2018 Units:  English    Metric   Both
« Previous Day
Next Day »
Daily Weekly Monthly Yearly Custom
  High: Low: Average:
Temperature: TemperatureC °F 3.4 °F 6 °F
Dew Point: DewpointC °F 2.2 °F 4.7 °F
Humidity: Humidity % 82 % 91 %
Wind Speed: WindSpeedKMH mph 0.0 mph 2.5 mph
Wind Gust: WindSpeedGustKMH mph - -
Wind:- - WSW
Pressure: PressurehPa in 1015.5 in -
Precipitation: 0.5 in    
Historical Graphs
 
 
Tabular Data for January 26, 2018
Time Temperature Dew Point Pressure Wind Wind Speed Wind Gust Humidity Rainfall Rate (Hourly)
TemperatureC °F DewpointC °F PressurehPa in Calm     Humidity % HourlyPrecipMM in
00:00 5.8 °F 5.4 °F 1015.8 in Calm   3.2 mph 97 % 0.5 in
00:06 5.8 °F 5.4 °F 1015.8 in Calm     97 % 0.5 in
00:12 5.8 °F 5.4 °F 1015.8 in Calm     97 % 0.5 in
00:18 5.8 °F 5.4 °F 1015.8 in Calm     97 % 0.5 in
00:24 5.8 °F 5.4 °F 1016.1 in Calm     97 % 0.5 in
00:30 5.8 °F 5.2 °F 1016.1 in Calm     96 % 0.5 in
00:36 5.8 °F 5.2 °F 1016.1 in Calm     96 % 0.5 in
00:42 5.8 °F 5.2 °F 1016.1 in Calm     96 % 0.5 in
00:48 5.7 °F 5.1 °F 1015.8 in Calm     96 % 0.5 in
00:54 5.7 °F 5.3 °F 1015.8 in Calm     97 % 0.5 in
01:00 5.7 °F 5.3 °F 1015.8 in Calm     97 % 0.5 in
01:06 5.7 °F 5.3 °F 1015.8 in Calm     97 % 0.3 in
01:12 5.7 °F 5.3 °F 1015.8 in SSW 1.4 mph 1.6 mph 97 % 0.3 in
01:18 5.8 °F 5.4 °F 1015.8 in WSW 3.2 mph 4.8 mph 97 % 0.3 in
01:24 5.8 °F 5.4 °F 1015.8 in Calm   1.6 mph 97 % 0.3 in
01:30 5.8 °F 5.2 °F 1015.5 in Calm     96 % 0.3 in
01:36 5.8 °F 5.2 °F 1015.5 in Calm     96 % 0.0 in
01:42 5.8 °F 5.2 °F 1015.5 in WSW 1.4 mph 3.2 mph 96 % 0.0 in
01:48 5.9 °F 5.3 °F 1015.8 in SW 3.2 mph 4.8 mph 96 % 0.0 in
01:54 5.9 °F 5.3 °F 1015.8 in SW 1.4 mph 4.8 mph 96 % 0.0 in
02:00 5.9 °F 5.3 °F 1015.8 in WSW 3.2 mph 8.0 mph 96 % 0.0 in
02:06 5.9 °F 5.3 °F 1015.5 in SW 1.4 mph 4.8 mph 96 % 0.0 in
02:12 5.9 °F 5.3 °F 1015.5 in WSW 3.2 mph 6.4 mph 96 % 0.0 in
02:18 6.0 °F 5.4 °F 1015.8 in WSW 6.4 mph 6.4 mph 96 % 0.0 in
02:24 6.0 °F 5.4 °F 1015.5 in WSW 1.4 mph 4.8 mph 96 % 0.0 in
02:30 6.1 °F 5.5 °F 1015.8 in WSW 1.4 mph 4.8 mph 96 % 0.0 in
02:36 6.1 °F 5.5 °F 1015.8 in WSW 3.2 mph 6.4 mph 96 % 0.0 in
02:42 6.1 °F 5.5 °F 1016.1 in West 1.4 mph 6.4 mph 96 % 0.0 in
02:48 6.1 °F 5.5 °F 1016.1 in SW 1.4 mph 4.8 mph 96 % 0.0 in
02:54 6.2 °F 5.6 °F 1016.1 in West 1.4 mph 4.8 mph 96 % 0.0 in
03:00 6.2 °F 5.6 °F 1016.1 in WSW 4.7 mph 6.4 mph 96 % 0.0 in
03:06 6.2 °F 5.6 °F 1016.1 in Calm   4.8 mph 96 % 0.0 in
03:12 6.2 °F 5.6 °F 1016.1 in West 1.4 mph 4.8 mph 96 % 0.0 in
03:18 6.2 °F 5.6 °F 1015.8 in West 3.2 mph 3.2 mph 96 % 0.0 in
03:24 6.3 °F 5.7 °F 1015.8 in WNW 3.2 mph 3.2 mph 96 % 0.0 in
03:30 6.3 °F 5.7 °F 1015.5 in WNW 4.7 mph 4.8 mph 96 % 0.0 in
03:36 6.3 °F 5.7 °F 1015.5 in WNW 3.2 mph 4.8 mph 96 % 0.0 in
03:42 6.3 °F 5.6 °F 1015.5 in WNW 1.4 mph 4.8 mph 95 % 0.0 in
03:48 6.3 °F 5.6 °F 1015.5 in Calm   1.6 mph 95 % 0.0 in
03:55 6.3 °F 5.6 °F 1015.8 in Calm     95 % 0.0 in
03:59 6.3 °F 5.6 °F 1015.8 in Calm     95 % 0.0 in
04:05 6.3 °F 5.6 °F 1015.8 in Calm     95 % 0.0 in
04:11 6.3 °F 5.6 °F 1015.8 in Calm     95 % 0.0 in
04:17 6.3 °F 5.6 °F 1015.8 in Calm     95 % 0.0 in
04:23 6.3 °F 5.7 °F 1015.8 in Calm   1.6 mph 96 % 0.0 in
04:29 6.3 °F 5.7 °F 1015.8 in Calm   1.6 mph 96 % 0.0 in
04:35 6.3 °F 5.7 °F 1015.8 in Calm     96 % 0.0 in
04:41 6.3 °F 5.7 °F 1015.8 in Calm   1.6 mph 96 % 0.0 in
04:47 6.2 °F 5.6 °F 1016.1 in Calm     96 % 0.0 in
04:53 6.2 °F 5.6 °F 1016.1 in Calm     96 % 0.0 in
04:59 6.2 °F 5.6 °F 1016.1 in Calm     96 % 0.0 in
05:05 6.2 °F 5.6 °F 1016.1 in Calm     96 % 0.0 in
05:11 6.2 °F 5.6 °F 1016.1 in Calm     96 % 0.0 in
05:17 6.1 °F 5.5 °F 1016.5 in SSW 1.4 mph 4.8 mph 96 % 0.0 in
05:23 6.1 °F 5.5 °F 1016.5 in SSW 1.4 mph 3.2 mph 96 % 0.0 in
05:29 6.0 °F 5.4 °F 1016.5 in SW 1.4 mph 3.2 mph 96 % 0.0 in
05:35 5.9 °F 5.3 °F 1016.8 in WSW 3.2 mph 4.8 mph 96 % 0.0 in
05:41 6.0 °F 5.6 °F 1016.8 in SW 1.4 mph 3.2 mph 97 % 0.0 in
05:48 6.0 °F 5.6 °F 1016.8 in WSW 3.2 mph 4.8 mph 97 % 0.0 in
05:54 6.0 °F 5.6 °F 1016.8 in Calm   4.8 mph 97 % 0.0 in
06:00 6.0 °F 5.6 °F 1016.8 in SW 3.2 mph 4.8 mph 97 % 0.0 in
06:06 6.0 °F 5.6 °F 1016.8 in WSW 3.2 mph 4.8 mph 97 % 0.0 in
06:12 5.9 °F 5.5 °F 1016.8 in West 3.2 mph 6.4 mph 97 % 0.0 in
06:18 5.9 °F 5.5 °F 1016.8 in WSW 1.4 mph 6.4 mph 97 % 0.0 in
06:24 5.9 °F 5.5 °F 1016.8 in WSW 1.4 mph 6.4 mph 97 % 0.0 in
06:30 5.9 °F 5.5 °F 1016.8 in WSW 4.7 mph 4.8 mph 97 % 0.0 in
06:36 5.9 °F 5.5 °F 1016.8 in WSW 4.7 mph 8.0 mph 97 % 0.0 in
06:42 5.8 °F 5.4 °F 1016.8 in SW 4.7 mph 8.0 mph 97 % 0.0 in
06:48 5.8 °F 5.4 °F 1016.8 in West 3.2 mph 6.4 mph 97 % 0.0 in
06:54 5.8 °F 5.4 °F 1016.8 in West 4.7 mph 6.4 mph 97 % 0.0 in
07:00 5.7 °F 5.3 °F 1016.8 in WSW 6.4 mph 8.0 mph 97 % 0.0 in
07:06 5.7 °F 5.3 °F 1016.8 in West 3.2 mph 4.8 mph 97 % 0.0 in
07:12 5.6 °F 5.2 °F 1016.8 in West 3.2 mph 4.8 mph 97 % 0.0 in
07:18 5.6 °F 5.2 °F 1016.8 in West 4.7 mph 4.8 mph 97 % 0.0 in
07:24 5.6 °F 5.2 °F 1017.2 in West 4.7 mph 8.0 mph 97 % 0.0 in
07:30 5.6 °F 5.2 °F 1017.2 in West 6.4 mph 8.0 mph 97 % 0.0 in
07:36 5.7 °F 5.3 °F 1017.2 in West 4.7 mph 8.0 mph 97 % 0.0 in
07:42 5.7 °F 5.3 °F 1017.5 in WSW 4.7 mph 4.8 mph 97 % 0.0 in
07:48 5.7 °F 5.1 °F 1017.5 in WSW 7.9 mph 8.0 mph 96 % 0.0 in
07:54 5.7 °F 5.1 °F 1017.5 in SW 4.7 mph 9.7 mph 96 % 0.0 in
08:00 5.7 °F 5.1 °F 1017.5 in SW 3.2 mph 8.0 mph 96 % 0.0 in
08:06 5.7 °F 5.1 °F 1017.5 in WSW 1.4 mph 4.8 mph 96 % 0.0 in
08:12 5.7 °F 5.1 °F 1017.5 in SSW 1.4 mph 4.8 mph 96 % 0.0 in
08:18 5.6 °F 5.0 °F 1017.5 in WSW 1.4 mph 3.2 mph 96 % 0.0 in
08:24 5.6 °F 5.0 °F 1017.5 in WSW 3.2 mph 3.2 mph 96 % 0.0 in
08:30 5.5 °F 4.9 °F 1017.5 in SW 7.9 mph 9.7 mph 96 % 0.0 in
08:36 5.4 °F 4.8 °F 1017.5 in WNW 1.4 mph 3.2 mph 96 % 0.0 in
08:42 5.4 °F 4.8 °F 1017.5 in Calm   1.6 mph 96 % 0.0 in
08:48 5.4 °F 4.8 °F 1017.8 in Calm     96 % 0.0 in
08:54 5.4 °F 5.0 °F 1017.8 in Calm   1.6 mph 97 % 0.0 in
09:00 5.5 °F 5.1 °F 1017.8 in Calm   1.6 mph 97 % 0.0 in
09:06 5.6 °F 5.2 °F 1018.2 in SW 1.4 mph 4.8 mph 97 % 0.0 in
09:12 5.6 °F 5.2 °F 1018.2 in WSW 3.2 mph 8.0 mph 97 % 0.0 in
09:18 5.6 °F 5.0 °F 1018.2 in West 6.4 mph 9.7 mph 96 % 0.0 in
09:25 5.7 °F 5.1 °F 1018.2 in West 3.2 mph 4.8 mph 96 % 0.0 in
09:31 5.7 °F 5.1 °F 1018.2 in WSW 6.4 mph 6.4 mph 96 % 0.0 in
09:39 5.8 °F 5.2 °F 1018.5 in West 3.2 mph 3.2 mph 96 % 0.0 in
09:45 5.8 °F 5.2 °F 1018.5 in West 4.7 mph 6.4 mph 96 % 0.0 in
09:51 5.9 °F 5.3 °F 1018.5 in WSW 9.7 mph 9.7 mph 96 % 0.0 in
09:57 5.9 °F 5.2 °F 1018.5 in WSW 4.7 mph 6.4 mph 95 % 0.0 in
10:03 6.0 °F 5.3 °F 1018.8 in WNW 6.4 mph 6.4 mph 95 % 0.0 in
10:09 6.1 °F 5.4 °F 1018.8 in WSW 3.2 mph 8.0 mph 95 % 0.0 in
10:15 6.1 °F 5.2 °F 1018.8 in WSW 3.2 mph 4.8 mph 94 % 0.0 in
10:21 6.2 °F 5.3 °F 1018.5 in WSW 1.4 mph 3.2 mph 94 % 0.0 in
10:27 6.2 °F 5.3 °F 1018.5 in West 1.4 mph 4.8 mph 94 % 0.0 in
10:33 6.2 °F 5.3 °F 1018.5 in WSW 3.2 mph 3.2 mph 94 % 0.0 in
10:39 6.2 °F 5.3 °F 1018.5 in Calm   6.4 mph 94 % 0.0 in
10:45 6.3 °F 5.4 °F 1018.8 in SW 1.4 mph 6.4 mph 94 % 0.0 in
10:51 6.4 °F 5.5 °F 1018.8 in SSW 4.7 mph 6.4 mph 94 % 0.0 in
10:57 6.4 °F 5.5 °F 1018.8 in SW 6.4 mph 6.4 mph 94 % 0.0 in
11:03 6.5 °F 5.6 °F 1018.8 in SW 1.4 mph 4.8 mph 94 % 0.0 in
11:09 6.5 °F 5.6 °F 1019.2 in West 1.4 mph 6.4 mph 94 % 0.0 in
11:15 6.4 °F 5.4 °F 1019.2 in SW 3.2 mph 8.0 mph 93 % 0.0 in
11:21 6.5 °F 5.4 °F 1019.2 in Calm   1.6 mph 93 % 0.0 in
11:27 6.5 °F 5.4 °F 1019.5 in SW 1.4 mph 6.4 mph 93 % 0.0 in
11:33 6.5 °F 5.3 °F 1019.5 in West 3.2 mph 8.0 mph 92 % 0.0 in
11:39 6.6 °F 5.5 °F 1019.5 in WSW 3.2 mph 6.4 mph 93 % 0.0 in
11:45 6.6 °F 5.5 °F 1019.5 in Calm   4.8 mph 93 % 0.0 in
11:51 6.6 °F 5.4 °F 1019.5 in West 4.7 mph 6.4 mph 92 % 0.0 in
11:57 6.6 °F 5.4 °F 1019.5 in WSW 3.2 mph 4.8 mph 92 % 0.0 in
12:03 6.7 °F 5.3 °F 1019.5 in West 6.4 mph 9.7 mph 91 % 0.0 in
12:09 6.7 °F 5.3 °F 1019.5 in West 4.7 mph 9.7 mph 91 % 0.0 in
12:15 6.8 °F 5.4 °F 1019.5 in West 6.4 mph 9.7 mph 91 % 0.0 in
12:21 6.8 °F 5.3 °F 1019.5 in West 7.9 mph 8.0 mph 90 % 0.0 in
12:27 6.8 °F 5.3 °F 1019.5 in West 3.2 mph 8.0 mph 90 % 0.0 in
12:33 6.9 °F 5.5 °F 1019.5 in West 3.2 mph 8.0 mph 91 % 0.0 in
12:39 6.9 °F 5.2 °F 1019.5 in West 6.4 mph 11.3 mph 89 % 0.0 in
12:45 7.1 °F 5.4 °F 1019.9 in West 6.4 mph 9.7 mph 89 % 0.0 in
12:51 7.1 °F 5.6 °F 1019.5 in WSW 6.4 mph 6.4 mph 90 % 0.0 in
12:57 7.1 °F 5.4 °F 1019.5 in WSW 7.9 mph 11.3 mph 89 % 0.0 in
13:03 7.1 °F 5.4 °F 1019.5 in West 3.2 mph 6.4 mph 89 % 0.0 in
13:09 7.1 °F 5.4 °F 1019.5 in West 6.4 mph 8.0 mph 89 % 0.0 in
13:15 7.2 °F 5.5 °F 1019.9 in West 1.4 mph 3.2 mph 89 % 0.0 in
13:21 7.3 °F 5.4 °F 1019.9 in West 4.7 mph 9.7 mph 88 % 0.0 in
13:27 7.3 °F 5.3 °F 1019.9 in WSW 6.4 mph 9.7 mph 87 % 0.0 in
13:33 7.4 °F 5.2 °F 1019.9 in Calm   9.7 mph 86 % 0.0 in
13:39 7.4 °F 5.4 °F 1019.9 in West 3.2 mph 6.4 mph 87 % 0.0 in
13:45 7.3 °F 5.1 °F 1020.2 in WNW 9.7 mph 11.3 mph 86 % 0.0 in
13:51 7.4 °F 5.4 °F 1020.2 in NW 1.4 mph 6.4 mph 87 % 0.0 in
13:57 7.4 °F 5.0 °F 1020.2 in Calm   8.0 mph 85 % 0.0 in
14:03 7.4 °F 5.0 °F 1020.2 in WNW 3.2 mph 11.3 mph 85 % 0.0 in
14:09 7.4 °F 4.9 °F 1020.2 in WNW 3.2 mph 14.5 mph 84 % 0.0 in
14:15 7.4 °F 4.9 °F 1020.2 in WNW 4.7 mph 11.3 mph 84 % 0.0 in
14:21 7.6 °F 5.1 °F 1020.2 in NW 1.4 mph 8.0 mph 84 % 0.0 in
14:27 7.6 °F 5.2 °F 1020.2 in Calm   8.0 mph 85 % 0.0 in
14:33 7.6 °F 5.1 °F 1020.2 in NW 3.2 mph 6.4 mph 84 % 0.0 in
14:39 7.6 °F 5.1 °F 1020.2 in NNW 3.2 mph 8.0 mph 84 % 0.0 in
14:45 7.7 °F 5.3 °F 1020.2 in NNW 1.4 mph 8.0 mph 85 % 0.0 in
14:51 7.7 °F 5.3 °F 1020.5 in NNW 4.7 mph 6.4 mph 85 % 0.0 in
14:57 7.8 °F 5.3 °F 1020.5 in NW 3.2 mph 6.4 mph 84 % 0.0 in
15:03 7.5 °F 4.8 °F 1020.5 in NW 3.2 mph 8.0 mph 83 % 0.0 in
15:09 7.4 °F 4.7 °F 1020.5 in NNW 1.4 mph 8.0 mph 83 % 0.0 in
15:15 7.3 °F 4.8 °F 1020.5 in WNW 1.4 mph 4.8 mph 84 % 0.0 in
15:21 7.3 °F 4.4 °F 1020.5 in NW 1.4 mph 8.0 mph 82 % 0.0 in
15:27 7.4 °F 4.7 °F 1020.5 in WNW 1.4 mph 4.8 mph 83 % 0.0 in
15:33 7.6 °F 4.9 °F 1020.5 in WNW 4.7 mph 6.4 mph 83 % 0.0 in
15:39 7.7 °F 5.0 °F 1020.5 in North 4.7 mph 9.7 mph 83 % 0.0 in
15:45 7.6 °F 5.2 °F 1020.5 in North 4.7 mph 9.7 mph 85 % 0.0 in
15:51 7.4 °F 5.2 °F 1020.5 in North 4.7 mph 12.9 mph 86 % 0.0 in
15:57 7.3 °F 5.1 °F 1020.9 in NNW 4.7 mph 6.4 mph 86 % 0.0 in
16:03 7.3 °F 5.1 °F 1020.9 in NNW 1.4 mph 4.8 mph 86 % 0.0 in
16:09 7.2 °F 4.8 °F 1020.9 in NW 1.4 mph 8.0 mph 85 % 0.0 in
16:15 7.1 °F 4.6 °F 1020.9 in WNW 4.7 mph 8.0 mph 84 % 0.0 in
16:21 7.1 °F 4.4 °F 1020.9 in NNW 4.7 mph 6.4 mph 83 % 0.0 in
16:27 7.2 °F 4.5 °F 1021.2 in North 3.2 mph 4.8 mph 83 % 0.0 in
16:33 7.2 °F 4.5 °F 1021.2 in North 4.7 mph 8.0 mph 83 % 0.0 in
16:39 7.4 °F 4.7 °F 1021.2 in North 1.4 mph 3.2 mph 83 % 0.0 in
16:45 7.4 °F 4.5 °F 1021.2 in WNW 1.4 mph 3.2 mph 82 % 0.0 in
16:52 7.6 °F 4.7 °F 1021.6 in West 1.4 mph 3.2 mph 82 % 0.0 in
16:58 7.6 °F 4.7 °F 1021.6 in WNW 6.4 mph 6.4 mph 82 % 0.0 in
17:04 7.4 °F 4.5 °F 1021.6 in WNW 3.2 mph 4.8 mph 82 % 0.0 in
17:10 7.4 °F 4.9 °F 1021.6 in WNW 1.4 mph 4.8 mph 84 % 0.0 in
17:16 7.4 °F 4.9 °F 1021.9 in Calm   1.6 mph 84 % 0.0 in
17:22 7.2 °F 4.7 °F 1021.9 in West 3.2 mph 3.2 mph 84 % 0.0 in
17:28 7.1 °F 4.7 °F 1022.2 in WNW 1.4 mph 1.6 mph 85 % 0.0 in
17:34 6.9 °F 4.7 °F 1022.2 in WNW 1.4 mph 1.6 mph 86 % 0.0 in
17:40 6.8 °F 4.6 °F 1022.2 in West 1.4 mph 1.6 mph 86 % 0.0 in
17:46 6.8 °F 4.6 °F 1022.2 in WNW 1.4 mph 3.2 mph 86 % 0.0 in
17:52 6.8 °F 4.6 °F 1022.6 in WNW 1.4 mph 4.8 mph 86 % 0.0 in
17:58 6.7 °F 4.5 °F 1022.6 in Calm   3.2 mph 86 % 0.0 in
18:04 6.7 °F 4.5 °F 1022.6 in NW 1.4 mph 4.8 mph 86 % 0.0 in
18:10 6.7 °F 4.5 °F 1022.9 in NNW 1.4 mph 3.2 mph 86 % 0.0 in
18:16 6.6 °F 4.4 °F 1022.9 in WNW 1.4 mph 3.2 mph 86 % 0.0 in
18:22 6.6 °F 4.4 °F 1022.9 in WNW 1.4 mph 4.8 mph 86 % 0.0 in
18:28 6.6 °F 4.6 °F 1023.2 in WNW 4.7 mph 4.8 mph 87 % 0.0 in
18:34 6.5 °F 4.5 °F 1023.2 in WNW 4.7 mph 6.4 mph 87 % 0.0 in
18:40 6.5 °F 4.5 °F 1023.2 in WNW 3.2 mph 6.4 mph 87 % 0.0 in
18:46 6.4 °F 4.4 °F 1023.2 in NW 3.2 mph 3.2 mph 87 % 0.0 in
18:52 6.4 °F 4.6 °F 1023.6 in Calm   8.0 mph 88 % 0.0 in
18:58 6.5 °F 4.8 °F 1023.6 in North 3.2 mph 6.4 mph 89 % 0.0 in
19:04 6.4 °F 4.7 °F 1023.6 in NE 6.4 mph 9.7 mph 89 % 0.0 in
19:10 6.3 °F 4.9 °F 1023.6 in NNE 3.2 mph 6.4 mph 91 % 0.0 in
19:16 6.2 °F 4.8 °F 1023.6 in NE 3.2 mph 6.4 mph 91 % 0.0 in
19:22 6.1 °F 4.7 °F 1023.9 in North 1.4 mph 8.0 mph 91 % 0.0 in
19:28 5.9 °F 4.5 °F 1023.9 in Calm   3.2 mph 91 % 0.0 in
19:34 5.8 °F 4.4 °F 1023.9 in Calm   4.8 mph 91 % 0.0 in
19:40 5.7 °F 4.3 °F 1023.9 in Calm     91 % 0.0 in
19:46 5.5 °F 4.1 °F 1024.3 in Calm   1.6 mph 91 % 0.0 in
19:52 5.4 °F 4.0 °F 1024.3 in NW 4.7 mph 6.4 mph 91 % 0.0 in
19:58 5.4 °F 4.0 °F 1024.3 in North 1.4 mph 3.2 mph 91 % 0.0 in
20:04 5.4 °F 4.0 °F 1023.9 in NNW 3.2 mph 9.7 mph 91 % 0.0 in
20:10 5.5 °F 4.0 °F 1024.3 in NNW 11.1 mph 12.9 mph 90 % 0.0 in
20:16 5.5 °F 3.8 °F 1024.3 in NNW 4.7 mph 11.3 mph 89 % 0.0 in
20:22 5.4 °F 3.7 °F 1024.3 in NE 3.2 mph 9.7 mph 89 % 0.0 in
20:28 5.4 °F 3.6 °F 1024.3 in NE 3.2 mph 12.9 mph 88 % 0.0 in
20:34 5.5 °F 3.5 °F 1024.3 in NNE 7.9 mph 11.3 mph 87 % 0.0 in
20:40 5.4 °F 3.2 °F 1024.3 in NE 3.2 mph 6.4 mph 86 % 0.0 in
20:46 5.3 °F 3.1 °F 1024.6 in North 4.7 mph 8.0 mph 86 % 0.0 in
20:52 5.1 °F 3.0 °F 1024.6 in Calm   3.2 mph 86 % 0.0 in
20:58 4.9 °F 2.8 °F 1024.9 in NNE 3.2 mph 3.2 mph 86 % 0.0 in
21:04 4.9 °F 2.8 °F 1024.9 in NNE 3.2 mph 3.2 mph 86 % 0.0 in
21:10 4.9 °F 2.8 °F 1024.9 in North 1.4 mph 3.2 mph 86 % 0.0 in
21:16 4.8 °F 2.7 °F 1024.9 in Calm   1.6 mph 86 % 0.0 in
21:22 4.5 °F 2.5 °F 1025.3 in Calm   1.6 mph 87 % 0.0 in
21:28 4.4 °F 2.4 °F 1025.3 in Calm   3.2 mph 87 % 0.0 in
21:34 4.3 °F 2.5 °F 1025.3 in North 1.4 mph 1.6 mph 88 % 0.0 in
21:40 4.3 °F 2.5 °F 1025.6 in Calm   1.6 mph 88 % 0.0 in
21:46 4.2 °F 2.4 °F 1025.6 in Calm   1.6 mph 88 % 0.0 in
21:54 4.1 °F 2.5 °F 1025.6 in NNW 1.4 mph 1.6 mph 89 % 0.0 in
22:04 4.1 °F 2.5 °F 1026.0 in Calm   4.8 mph 89 % 0.0 in
22:10 4.0 °F 2.4 °F 1026.0 in Calm   3.2 mph 89 % 0.0 in
22:16 3.9 °F 2.4 °F 1025.6 in NNE 1.4 mph 3.2 mph 90 % 0.0 in
22:22 3.8 °F 2.3 °F 1025.6 in North 1.4 mph 3.2 mph 90 % 0.0 in
22:28 3.7 °F 2.2 °F 1025.6 in NNW 3.2 mph 3.2 mph 90 % 0.0 in
22:34 3.6 °F 2.3 °F 1025.6 in North 1.4 mph 3.2 mph 91 % 0.0 in
22:40 3.6 °F 2.3 °F 1025.6 in NNW 1.4 mph 3.2 mph 91 % 0.0 in
22:46 3.6 °F 2.3 °F 1025.6 in NNW 3.2 mph 4.8 mph 91 % 0.0 in
22:52 3.7 °F 2.4 °F 1025.6 in Calm   3.2 mph 91 % 0.0 in
22:58 3.6 °F 2.3 °F 1026.0 in NW 3.2 mph 4.8 mph 91 % 0.0 in
23:04 3.7 °F 2.4 °F 1026.0 in NNW 3.2 mph 4.8 mph 91 % 0.0 in
23:10 3.8 °F 2.6 °F 1026.0 in NW 1.4 mph 6.4 mph 92 % 0.0 in
23:16 3.7 °F 2.5 °F 1026.0 in NNW 4.7 mph 6.4 mph 92 % 0.0 in
23:22 3.6 °F 2.4 °F 1026.3 in NNW 4.7 mph 4.8 mph 92 % 0.0 in
23:28 3.6 °F 2.4 °F 1026.3 in NW 1.4 mph 4.8 mph 92 % 0.0 in
23:34 3.6 °F 2.6 °F 1026.3 in NW 1.4 mph 4.8 mph 93 % 0.0 in
23:40 3.6 °F 2.4 °F 1026.6 in NW 3.2 mph 4.8 mph 92 % 0.0 in
23:46 3.4 °F 2.4 °F 1026.6 in NW 1.4 mph 3.2 mph 93 % 0.0 in
23:53 3.4 °F 2.4 °F 1026.6 in Calm   1.6 mph 93 % 0.0 in
23:59 3.4 °F 2.4 °F 1026.6 in Calm   1.6 mph 93 % 0.0 in
Meteo18
Compliments of Weather Underground - 4 mb

Script developed by  Jim McMurry - jmcmurry@mwt.net Adapted for the template by  Wim van der Kuil - Leuven-Template.eu

You find our weather info also at:

European Weather Network

Weather Underground

Equipment we use:

Weather-station
Davis Vue

Weather-program
Meteobridge

Weather-server
Raspberry PI 2 B+

Provider
1 and 1

Davis Vue

Meteobridge

Raspberry PI 2 B+

1 and 1